Time;durP1;ratioP1;P1;durP2;ratioP2;P2;SDS_P1;SDS_P2;PMS_P1;PMS_P2;Temp;Humidity;BMP_temperature;BMP_pressure;BME280_temperature;BME280_humidity;BME280_pressure;Samples;Min_cycle;Max_cycle;Signal;HPM_P1;HPM_P2
2021/01/10 00:00:21;;;;;;;84.30;31.30;;;;;;;-2.06;92.81;101303.48;1455605;98;21014;-91
2021/01/10 00:02:52;;;;;;;84.13;31.80;;;;;;;-2.03;92.93;101307.62;1437292;98;21283;-91
2021/01/10 00:05:26;;;;;;;80.15;31.70;;;;;;;-2.00;92.85;101312.58;1455413;98;21252;-91
2021/01/10 00:07:53;;;;;;;84.52;32.33;;;;;;;-2.01;92.72;101316.22;1393866;102;21299;-90
2021/01/10 00:10:20;;;;;;;90.53;32.83;;;;;;;-2.04;92.82;101313.90;1418035;100;21234;-90
2021/01/10 00:12:48;;;;;;;94.60;34.10;;;;;;;-2.04;92.69;101318.68;1425037;100;21544;-91
2021/01/10 00:15:18;;;;;;;92.37;34.33;;;;;;;-2.05;92.85;101314.39;1425057;99;21385;-91
2021/01/10 00:17:46;;;;;;;88.52;32.03;;;;;;;-2.04;93.08;101315.22;1424980;100;21352;-91
2021/01/10 00:20:14;;;;;;;92.90;32.85;;;;;;;-2.03;92.82;101311.58;1425016;100;21274;-91
2021/01/10 00:22:41;;;;;;;90.72;34.43;;;;;;;-2.04;92.87;101312.58;1460019;97;21668;-91
2021/01/10 00:25:10;;;;;;;88.35;34.27;;;;;;;-2.07;93.00;101318.50;1476227;97;21236;-91
2021/01/10 00:27:38;;;;;;;86.87;32.20;;;;;;;-2.07;92.96;101314.54;1522471;92;21654;-90
2021/01/10 00:30:11;;;;;;;85.00;32.25;;;;;;;-2.08;93.49;101318.17;1547837;92;21252;-91
2021/01/10 00:32:37;;;;;;;85.07;31.62;;;;;;;-2.06;93.10;101313.58;1508281;95;21215;-91
2021/01/10 00:35:06;;;;;;;80.83;31.35;;;;;;;-2.06;93.22;101314.89;1507492;94;21288;-91
2021/01/10 00:37:33;;;;;;;82.90;32.28;;;;;;;-1.98;93.20;101312.76;1521309;94;21416;-91
2021/01/10 00:39:59;;;;;;;86.32;33.13;;;;;;;-2.02;93.18;101306.66;1521404;94;21295;-90
2021/01/10 00:42:25;;;;;;;82.30;31.75;;;;;;;-2.01;93.09;101307.80;1521305;94;21161;-91
2021/01/10 00:44:51;;;;;;;103.87;31.77;;;;;;;-1.96;92.91;101306.02;1521273;92;26910;-90
2021/01/10 00:47:17;;;;;;;88.82;32.63;;;;;;;-1.98;93.26;101316.72;1521429;94;21076;-90
2021/01/10 00:49:45;;;;;;;78.62;30.65;;;;;;;-1.99;93.14;101308.97;1521386;94;21273;-90
2021/01/10 00:52:13;;;;;;;78.55;30.97;;;;;;;-1.99;93.17;101317.72;1521514;94;21516;-91
2021/01/10 00:54:39;;;;;;;81.63;31.27;;;;;;;-1.92;93.09;101316.58;1521353;94;21198;-91
2021/01/10 00:57:06;;;;;;;81.00;29.23;;;;;;;-1.96;92.93;101317.89;1521450;94;21574;-91
2021/01/10 00:59:32;;;;;;;84.20;32.03;;;;;;;-1.93;93.05;101311.80;1521654;94;21750;-92
2021/01/10 01:01:58;;;;;;;94.05;33.30;;;;;;;-1.94;92.92;101319.86;1521518;94;21275;-90
2021/01/10 01:04:24;;;;;;;89.15;33.15;;;;;;;-1.98;92.84;101319.36;1548227;89;21219;-91
2021/01/10 01:06:51;;;;;;;81.63;30.65;;;;;;;-1.99;92.84;101319.04;1587454;90;21293;-91
2021/01/10 01:09:17;;;;;;;83.85;32.83;;;;;;;-1.96;92.94;101319.22;1587518;90;21222;-91
2021/01/10 01:11:43;;;;;;;86.75;31.30;;;;;;;-1.99;92.90;101320.36;1587411;90;21380;-91
2021/01/10 01:14:11;;;;;;;87.85;32.40;;;;;;;-2.00;92.91;101317.86;1587480;90;21178;-91
2021/01/10 01:16:40;;;;;;;83.85;31.70;;;;;;;-1.97;92.73;101323.67;1587449;90;21280;-91
2021/01/10 01:19:08;;;;;;;79.85;29.35;;;;;;;-2.02;92.71;101320.68;1587373;90;21644;-90
2021/01/10 01:21:34;;;;;;;79.97;29.57;;;;;;;-1.97;92.68;101325.00;1587576;90;21205;-91
2021/01/10 01:24:00;;;;;;;73.33;28.40;;;;;;;-2.01;92.99;101314.40;1587471;90;21065;-91
2021/01/10 01:26:26;;;;;;;75.97;29.50;;;;;;;-2.02;92.98;101318.53;1587521;90;21170;-91
2021/01/10 01:28:53;;;;;;;78.97;30.32;;;;;;;-2.01;92.96;101325.46;1615272;85;21352;-90
2021/01/10 01:31:22;;;;;;;77.67;30.62;;;;;;;-2.02;93.24;101320.68;1674894;85;21662;-91
2021/01/10 01:33:53;;;;;;;79.90;30.57;;;;;;;-2.02;93.22;101322.00;1675000;85;21656;-90
2021/01/10 01:36:27;;;;;;;80.47;29.67;;;;;;;-2.02;93.08;101317.22;1666571;84;21176;-91
2021/01/10 01:39:00;;;;;;;78.85;29.67;;;;;;;-2.00;93.06;101317.39;1665799;86;21168;-90
2021/01/10 01:41:27;;;;;;;75.15;30.50;;;;;;;-1.98;92.90;101315.90;1663126;86;22035;-90
2021/01/10 01:43:53;;;;;;;84.97;32.48;;;;;;;-2.00;92.86;101314.75;1665689;86;21180;-91
2021/01/10 01:46:33;;;;;;;82.05;31.25;;;;;;;-2.02;93.25;101313.25;1665828;86;21204;-91
2021/01/10 01:49:03;;;;;;;85.80;32.50;;;;;;;-1.99;93.01;101320.36;1665850;86;21176;-90
2021/01/10 01:51:29;;;;;;;94.50;34.08;;;;;;;-1.99;92.96;101320.36;1665793;86;21161;-90
2021/01/10 01:53:58;;;;;;;89.07;31.77;;;;;;;-1.99;92.89;101320.86;1665606;86;21714;-90
2021/01/10 01:56:24;;;;;;;90.77;33.13;;;;;;;-1.89;92.74;101317.58;1665575;86;21156;-90
2021/01/10 01:59:08;;;;;;;88.92;32.95;;;;;;;-1.95;92.82;101312.94;1665762;86;21078;-90
2021/01/10 02:01:38;;;;;;;86.78;32.80;;;;;;;-1.81;92.11;101305.72;1665776;86;21160;-91
2021/01/10 02:04:34;;;;;;;85.85;32.15;;;;;;;-1.94;92.22;101311.94;1665822;86;21212;-90
2021/01/10 02:07:13;;;;;;;87.92;32.40;;;;;;;-2.00;92.14;101308.62;1580029;90;21242;-90
2021/01/10 02:09:56;;;;;;;87.62;32.83;;;;;;;-2.03;92.09;101305.80;1584081;90;21633;-90
2021/01/10 02:12:24;;;;;;;87.78;32.93;;;;;;;-2.08;91.63;101301.02;1582279;90;21582;-90
2021/01/10 02:15:00;;;;;;;93.33;34.38;;;;;;;-2.12;91.91;101307.61;1584157;90;21290;-90
2021/01/10 02:17:28;;;;;;;102.78;36.75;;;;;;;-2.16;91.95;101304.94;1533229;93;21188;-91
2021/01/10 02:20:02;;;;;;;89.40;33.67;;;;;;;-2.19;91.95;101302.62;1533614;93;21261;-91
2021/01/10 02:22:32;;;;;;;86.87;32.93;;;;;;;-2.20;92.14;101306.25;1533319;93;21235;-90
2021/01/10 02:25:00;;;;;;;97.65;34.75;;;;;;;-2.22;92.31;101304.75;1532998;93;43314;-90
2021/01/10 02:27:26;;;;;;;92.57;35.88;;;;;;;-2.24;92.63;101307.53;1533304;93;21216;-90
2021/01/10 02:29:53;;;;;;;95.85;34.90;;;;;;;-2.23;92.63;101307.89;1533314;93;21135;-90
2021/01/10 02:32:22;;;;;;;93.85;36.38;;;;;;;-2.24;92.65;101307.53;1533186;93;21328;-90
2021/01/10 02:34:50;;;;;;;98.03;35.50;;;;;;;-2.25;93.19;101301.93;1539154;91;21325;-90
2021/01/10 02:37:33;;;;;;;98.22;35.05;;;;;;;-2.21;92.85;101306.39;1539588;93;21261;-90
2021/01/10 02:40:23;;;;;;;89.65;34.10;;;;;;;-2.18;92.78;101306.08;1535942;92;21245;-92
2021/01/10 02:43:18;;;;;;;98.37;36.10;;;;;;;-2.20;92.79;101309.39;1539896;92;21647;-91
2021/01/10 02:45:47;;;;;;;101.67;37.35;;;;;;;-2.19;92.88;101311.86;1539535;93;21270;-90
2021/01/10 02:48:13;;;;;;;94.00;37.30;;;;;;;-2.22;92.81;101310.85;1541098;93;21211;-91
2021/01/10 02:50:40;;;;;;;99.75;37.93;;;;;;;-2.18;92.76;101314.00;1541237;93;27545;-91
2021/01/10 02:53:06;;;;;;;95.85;34.92;;;;;;;-2.19;92.58;101316.31;1541432;93;21199;-90
2021/01/10 02:55:32;;;;;;;90.32;33.40;;;;;;;-2.19;92.45;101318.95;1541396;93;21297;-91
2021/01/10 02:58:10;;;;;;;96.12;32.58;;;;;;;-2.20;92.61;101317.31;1516687;93;21331;-90
2021/01/10 03:00:36;;;;;;;88.97;33.42;;;;;;;-2.20;92.32;101318.13;1489827;96;21235;-90
2021/01/10 03:03:03;;;;;;;91.17;32.50;;;;;;;-2.24;92.35;101311.99;1494694;94;21750;-91
2021/01/10 03:05:32;;;;;;;92.40;34.80;;;;;;;-2.24;92.42;101312.81;1500467;95;21254;-90
2021/01/10 03:08:00;;;;;;;86.85;33.20;;;;;;;-2.27;92.32;101314.95;1497660;95;21182;-90
2021/01/10 03:10:26;;;;;;;88.87;32.93;;;;;;;-2.26;92.16;101311.31;1497743;95;21218;-90
2021/01/10 03:12:52;;;;;;;88.62;33.78;;;;;;;-2.30;92.21;101310.81;1495571;91;27322;-90
2021/01/10 03:15:18;;;;;;;85.15;32.30;;;;;;;-2.31;92.30;101306.53;1559426;90;22440;-90
2021/01/10 03:17:47;;;;;;;85.67;31.80;;;;;;;-2.29;92.09;101304.56;1558465;92;21686;-90
2021/01/10 03:20:17;;;;;;;82.27;31.87;;;;;;;-2.26;92.11;101298.12;1579824;90;21165;-90
2021/01/10 03:22:45;;;;;;;84.15;32.10;;;;;;;-2.40;92.11;101303.52;1537660;92;22147;-90
2021/01/10 03:25:14;;;;;;;83.60;31.87;;;;;;;-2.40;92.11;101311.44;1542920;92;21241;-90
2021/01/10 03:27:40;;;;;;;86.22;32.48;;;;;;;-2.42;92.23;101310.75;1568372;91;21178;-90
2021/01/10 03:30:10;;;;;;;81.17;32.08;;;;;;;-2.53;93.18;101316.65;1568246;91;21239;-90
2021/01/10 03:32:36;;;;;;;83.60;30.30;;;;;;;-2.46;92.69;101314.20;1568378;90;21284;-90
2021/01/10 03:35:09;;;;;;;80.67;30.85;;;;;;;-2.49;92.65;101318.48;1570502;90;21934;-91
2021/01/10 03:37:36;;;;;;;77.20;30.45;;;;;;;-2.47;92.46;101320.94;1585098;90;21067;-91
2021/01/10 03:40:07;;;;;;;77.30;29.85;;;;;;;-2.51;92.46;101321.75;1585133;90;21253;-91
2021/01/10 03:42:33;;;;;;;81.47;30.52;;;;;;;-2.48;92.43;101323.26;1585142;90;21272;-90
2021/01/10 03:44:59;;;;;;;78.45;30.77;;;;;;;-2.48;92.39;101324.08;1585054;90;21250;-90
2021/01/10 03:47:25;;;;;;;84.07;31.05;;;;;;;-2.44;92.19;101321.48;1585040;90;22028;-90
2021/01/10 03:49:51;;;;;;;82.10;30.80;;;;;;;-2.45;92.32;101321.63;1584948;90;26440;-90
2021/01/10 03:52:17;;;;;;;82.15;29.60;;;;;;;-2.46;92.21;101327.89;1585255;90;21306;-90
2021/01/10 03:54:43;;;;;;;78.37;30.30;;;;;;;-2.46;92.13;101334.49;1585112;90;20992;-90
2021/01/10 03:57:08;;;;;;;73.25;29.10;;;;;;;-2.52;91.96;101334.13;1585127;90;21667;-89
2021/01/10 03:59:34;;;;;;;71.80;27.85;;;;;;;-2.55;92.07;101334.94;1585182;90;22052;-90
2021/01/10 04:02:00;;;;;;;72.50;28.55;;;;;;;-2.55;91.98;101331.80;1585244;90;21060;-90
2021/01/10 04:04:26;;;;;;;76.05;29.50;;;;;;;-2.57;92.12;101337.71;1585147;90;21247;-90
2021/01/10 04:06:52;;;;;;;74.42;27.90;;;;;;;-2.58;92.00;101345.30;1585077;90;21008;-91
2021/01/10 04:09:18;;;;;;;74.97;28.85;;;;;;;-2.61;92.12;101344.30;1585224;90;21028;-90
2021/01/10 04:11:44;;;;;;;72.17;26.75;;;;;;;-2.62;92.06;101342.65;1585302;90;21178;-90
2021/01/10 04:14:10;;;;;;;74.87;28.07;;;;;;;-2.63;92.09;101342.30;1585273;90;21326;-90
2021/01/10 04:16:36;;;;;;;73.10;27.50;;;;;;;-2.63;92.18;101348.06;1585362;90;27125;-90
2021/01/10 04:19:02;;;;;;;74.92;27.73;;;;;;;-2.63;92.29;101342.79;1600251;87;20978;-89
2021/01/10 04:21:36;;;;;;;72.27;29.55;;;;;;;-2.61;92.27;101348.75;1640095;87;21154;-90
2021/01/10 04:24:04;;;;;;;79.87;29.50;;;;;;;-2.58;92.18;101353.72;1640099;87;21242;-90
2021/01/10 04:26:36;;;;;;;72.42;29.07;;;;;;;-2.65;92.24;101365.35;1639949;87;21180;-89
2021/01/10 04:29:02;;;;;;;75.67;29.98;;;;;;;-2.62;92.42;101364.22;1636742;87;21653;-91
2021/01/10 04:31:27;;;;;;;74.22;29.07;;;;;;;-2.61;92.39;101360.62;1640108;87;20995;-90
2021/01/10 04:33:53;;;;;;;73.45;28.65;;;;;;;-2.63;92.33;101360.76;1615771;87;21661;-91
2021/01/10 04:36:19;;;;;;;82.62;30.35;;;;;;;-2.56;92.24;101362.28;1644030;86;21196;-91
2021/01/10 04:38:45;;;;;;;75.97;28.38;;;;;;;-2.60;92.31;101361.77;1618288;87;27063;-91
2021/01/10 04:41:15;;;;;;;74.80;28.47;;;;;;;-2.53;92.20;101368.56;1618683;87;26889;-91
2021/01/10 04:43:40;;;;;;;70.75;27.02;;;;;;;-2.55;92.29;101371.38;1642478;87;21153;-91
2021/01/10 04:46:07;;;;;;;73.22;28.67;;;;;;;-2.49;92.20;101376.53;1646770;87;21002;-90
2021/01/10 04:48:33;;;;;;;71.42;28.23;;;;;;;-2.53;92.27;101376.02;1646759;87;21928;-90
2021/01/10 04:51:00;;;;;;;68.83;26.62;;;;;;;-2.49;92.23;101377.84;1646728;87;25723;-89
2021/01/10 04:53:26;;;;;;;75.75;27.98;;;;;;;-2.46;92.14;101379.35;1647114;87;21168;-92
2021/01/10 04:55:56;;;;;;;69.50;26.77;;;;;;;-2.46;92.21;101385.45;1647350;87;21188;-93
2021/01/10 04:58:29;;;;;;;71.45;26.80;;;;;;;-2.46;92.21;101385.95;1640043;87;21156;-90
2021/01/10 05:00:57;;;;;;;73.93;28.47;;;;;;;-2.48;92.45;101396.64;1643709;87;21439;-91
2021/01/10 05:03:25;;;;;;;74.97;28.73;;;;;;;-2.43;92.17;101393.55;1641913;87;21562;-90
2021/01/10 05:05:51;;;;;;;70.95;28.30;;;;;;;-2.45;92.20;101399.47;1646664;87;21149;-91
2021/01/10 05:08:17;;;;;;;72.85;28.07;;;;;;;-2.37;91.87;101403.48;1646698;87;21652;-90
2021/01/10 05:10:43;;;;;;;74.32;28.12;;;;;;;-2.41;91.97;101407.41;1646724;87;21005;-90
2021/01/10 05:13:09;;;;;;;72.30;28.05;;;;;;;-2.40;92.00;101405.94;1646821;87;21411;-90
2021/01/10 05:15:37;;;;;;;73.85;28.05;;;;;;;-2.30;91.87;101422.49;1646740;87;27378;-90
2021/01/10 05:18:04;;;;;;;67.90;27.00;;;;;;;-2.34;91.78;101413.23;1647713;87;21637;-91
2021/01/10 05:20:32;;;;;;;68.15;26.93;;;;;;;-2.39;91.95;101419.47;1646965;87;21524;-92
2021/01/10 05:22:59;;;;;;;68.67;27.67;;;;;;;-2.36;91.69;101417.84;1646992;87;21681;-92
2021/01/10 05:25:27;;;;;;;77.62;28.77;;;;;;;-2.38;91.82;101426.42;1646947;87;21178;-92
2021/01/10 05:27:56;;;;;;;70.10;26.85;;;;;;;-2.36;91.81;101419.16;1647004;87;21202;-92
2021/01/10 05:30:32;;;;;;;78.85;28.90;;;;;;;-2.37;91.12;101428.06;1646667;87;21205;-91
2021/01/10 05:33:07;;;;;;;74.95;27.40;;;;;;;-2.38;91.25;101433.02;1646640;87;21615;-91
2021/01/10 05:35:56;;;;;;;75.95;29.10;;;;;;;-2.48;90.64;101434.08;1646466;85;21164;-90
2021/01/10 05:38:31;;;;;;;94.30;32.25;;;;;;;-2.54;90.59;101431.06;1646691;87;21228;-90
2021/01/10 05:41:02;;;;;;;90.72;32.73;;;;;;;-2.55;90.89;101439.98;1646512;87;21168;-91
2021/01/10 05:43:29;;;;;;;91.15;32.95;;;;;;;-2.55;90.87;101441.80;1645607;87;21557;-90
2021/01/10 05:45:55;;;;;;;102.38;34.00;;;;;;;-2.55;91.02;101442.61;1646528;87;21248;-91
2021/01/10 05:48:22;;;;;;;101.97;33.15;;;;;;;-2.55;90.90;101451.03;1646624;87;21180;-91
2021/01/10 05:50:52;;;;;;;104.32;35.13;;;;;;;-2.57;90.86;101451.66;1646545;87;21798;-91
2021/01/10 05:53:22;;;;;;;93.45;32.88;;;;;;;-2.56;90.95;101457.27;1646724;87;21184;-90
2021/01/10 05:56:03;;;;;;;89.45;30.70;;;;;;;-2.55;91.13;101457.63;1646681;87;21188;-90
2021/01/10 05:58:32;;;;;;;81.75;28.87;;;;;;;-2.50;91.17;101465.89;1618803;88;21319;-90
2021/01/10 06:01:00;;;;;;;94.55;33.35;;;;;;;-2.46;91.29;101462.48;1597061;88;21152;-91
2021/01/10 06:03:31;;;;;;;95.07;33.90;;;;;;;-2.38;91.32;101466.47;1619360;88;21241;-92
2021/01/10 06:06:00;;;;;;;95.22;33.13;;;;;;;-2.35;91.28;101468.34;1618578;88;21196;-91
2021/01/10 06:08:33;;;;;;;76.80;29.95;;;;;;;-2.30;91.15;101472.64;1618761;88;21510;-91
2021/01/10 06:11:26;;;;;;;78.83;29.42;;;;;;;-2.23;91.42;101472.06;1592785;90;21215;-91
2021/01/10 06:14:02;;;;;;;79.47;28.97;;;;;;;-2.16;91.37;101475.72;1592851;90;21183;-91
2021/01/10 06:16:34;;;;;;;85.85;31.15;;;;;;;-2.08;91.67;101478.42;1592600;90;21501;-91
2021/01/10 06:19:07;;;;;;;83.80;29.95;;;;;;;-1.99;91.65;101476.67;1603610;89;21688;-91
2021/01/10 06:21:34;;;;;;;94.85;31.07;;;;;;;-1.94;91.58;101475.22;1603802;89;21624;-91
2021/01/10 06:24:03;;;;;;;87.17;29.37;;;;;;;-1.89;91.28;101483.48;1603870;89;21723;-90
2021/01/10 06:26:33;;;;;;;86.90;30.35;;;;;;;-1.78;91.32;101486.86;1603744;89;21182;-90
2021/01/10 06:29:04;;;;;;;85.65;29.42;;;;;;;-1.72;91.13;101488.88;1562178;91;21184;-91
2021/01/10 06:31:33;;;;;;;88.40;29.30;;;;;;;-1.63;91.08;101495.86;1515486;94;21647;-90
2021/01/10 06:34:09;;;;;;;76.25;28.62;;;;;;;-1.52;91.04;101500.87;1522242;94;21134;-91
2021/01/10 06:36:39;;;;;;;83.87;28.32;;;;;;;-1.38;91.06;101503.42;1466919;96;21268;-91
2021/01/10 06:39:11;;;;;;;84.13;28.20;;;;;;;-1.23;91.03;101494.39;1449370;97;21249;-89
2021/01/10 06:42:01;;;;;;;78.37;26.20;;;;;;;-0.93;91.68;101497.77;1467733;97;21738;-91
2021/01/10 06:44:32;;;;;;;80.62;26.80;;;;;;;-0.49;91.33;101501.47;1465024;97;21291;-90
2021/01/10 06:46:58;;;;;;;76.55;26.27;;;;;;;0.04;91.24;101499.30;1465169;97;21310;-90
2021/01/10 06:49:24;;;;;;;76.82;25.88;;;;;;;0.57;91.88;101512.41;1459480;97;21030;-90
2021/01/10 06:51:54;;;;;;;74.50;25.00;;;;;;;1.06;91.31;101510.02;1445080;99;21274;-90
2021/01/10 06:54:20;;;;;;;75.25;25.00;;;;;;;1.40;91.33;101508.33;1429256;100;21253;-90
2021/01/10 06:56:48;;;;;;;73.75;26.10;;;;;;;1.66;90.09;101506.64;1410713;101;21052;-89
2021/01/10 06:59:26;;;;;;;71.35;24.60;;;;;;;2.00;89.86;101504.86;1429832;100;21280;-91
2021/01/10 07:01:58;;;;;;;71.92;24.25;;;;;;;2.40;89.42;101498.79;1420024;99;21697;-90
2021/01/10 07:04:34;;;;;;;97.17;26.27;;;;;;;2.88;89.59;101505.03;1438844;99;21246;-90
2021/01/10 07:07:00;;;;;;;98.15;26.05;;;;;;;3.52;88.50;101503.78;1438534;98;21210;-89
2021/01/10 07:09:26;;;;;;;1030.75;62.95;;;;;;;4.68;91.52;101501.53;1438722;98;21040;-91
2021/01/10 07:11:52;;;;;;;1858.90;98.87;;;;;;;5.36;90.59;101499.40;1438820;98;21054;-91
2021/01/10 07:14:24;;;;;;;715.28;49.00;;;;;;;5.98;86.28;101492.06;1438974;98;21326;-90
2021/01/10 07:16:50;;;;;;;1331.78;66.80;;;;;;;6.72;80.28;101493.02;1438701;98;21234;-90
2021/01/10 07:19:16;;;;;;;593.48;41.83;;;;;;;7.65;86.30;101489.82;1438777;98;21273;-89
2021/01/10 07:21:47;;;;;;;769.75;47.73;;;;;;;8.86;86.72;101492.44;1438454;98;21767;-88
2021/01/10 07:26:55;;;;;;;;;;;;;;;9.75;79.83;101487.75;1411407;101;21339;-89
2021/01/10 07:29:42;;;;;;;81.05;25.92;;;;;;;9.26;62.74;101499.96;1478965;96;20286;-89
2021/01/10 07:32:12;;;;;;;52.62;24.95;;;;;;;10.01;71.34;101495.92;1466897;94;22082;-89
2021/01/10 07:34:50;;;;;;;52.15;24.02;;;;;;;10.01;71.34;101495.92;1467695;97;21628;-90
2021/01/10 07:37:27;;;;;;;55.52;23.55;;;;;;;9.61;70.77;101501.13;1455510;97;21324;-89
2021/01/10 07:39:56;;;;;;;322.23;29.50;;;;;;;9.61;69.89;101501.94;1494986;95;21167;-90
2021/01/10 07:42:26;;;;;;;63.63;23.40;;;;;;;10.26;72.78;101499.70;1503412;95;21198;-91
2021/01/10 07:45:25;;;;;;;72.35;24.30;;;;;;;10.87;70.41;101496.17;1489153;96;21254;-90
2021/01/10 07:47:52;;;;;;;98.15;24.30;;;;;;;11.18;61.37;101500.30;1503275;95;21202;-91
2021/01/10 07:50:23;;;;;;;49.63;23.07;;;;;;;12.22;69.75;101491.77;1492756;94;21272;-90
2021/01/10 07:52:57;;;;;;;46.80;23.77;;;;;;;12.88;66.73;101495.03;1535114;93;21705;-89
2021/01/10 07:55:27;;;;;;;45.85;22.87;;;;;;;13.04;61.82;101491.44;1565962;91;21261;-90
2021/01/10 07:58:04;;;;;;;44.40;22.93;;;;;;;13.58;59.40;101494.16;1566099;91;21167;-90
2021/01/10 08:00:50;;;;;;;44.50;23.00;;;;;;;14.31;60.29;101488.19;1512633;94;21237;-89
2021/01/10 08:03:25;;;;;;;43.65;23.05;;;;;;;15.26;60.22;101487.20;1512709;94;21603;-87
2021/01/10 08:06:06;;;;;;;38.78;21.27;;;;;;;15.92;55.31;101484.55;1483814;96;21171;-86
2021/01/10 08:08:48;;;;;;;35.52;21.17;;;;;;;16.16;54.67;101492.12;1483738;96;21611;-87
2021/01/10 08:11:32;;;;;;;40.08;21.40;;;;;;;16.80;51.07;101490.84;1484045;96;21248;-86
2021/01/10 08:13:58;;;;;;;39.95;21.40;;;;;;;17.05;50.18;101490.43;1493038;96;21738;-89
2021/01/10 08:16:30;;;;;;;39.67;21.25;;;;;;;17.11;39.61;101485.22;1493543;96;21370;-88
2021/01/10 08:19:03;;;;;;;37.00;21.45;;;;;;;17.79;45.45;101489.11;1493568;96;21620;-89
2021/01/10 08:21:32;;;;;;;40.35;21.70;;;;;;;17.48;44.54;101482.53;1498937;95;21227;-89
2021/01/10 08:23:58;;;;;;;36.98;20.25;;;;;;;17.28;43.04;101479.95;1434821;98;21299;-89
2021/01/10 08:26:25;;;;;;;38.08;21.77;;;;;;;17.83;42.81;101478.72;1401300;102;21997;-89
2021/01/10 08:28:57;;;;;;;36.90;20.50;;;;;;;18.17;44.28;101480.55;1401592;102;21835;-90
2021/01/10 08:31:26;;;;;;;38.75;21.00;;;;;;;18.69;40.19;101472.59;1410968;100;21335;-89
2021/01/10 08:34:05;;;;;;;37.35;21.07;;;;;;;18.04;36.83;101476.61;1450212;98;21414;-90
2021/01/10 08:36:33;;;;;;;39.03;20.05;;;;;;;16.02;38.20;101470.11;1470625;96;21357;-90
2021/01/10 08:39:06;;;;;;;40.28;19.95;;;;;;;14.71;38.94;101474.58;1466997;97;21315;-89
2021/01/10 08:41:39;;;;;;;38.58;19.50;;;;;;;13.59;40.86;101468.73;1465170;97;21152;-90
2021/01/10 08:44:13;;;;;;;41.92;19.85;;;;;;;13.04;40.61;101473.05;1474468;97;21667;-90
2021/01/10 08:46:43;;;;;;;44.25;20.43;;;;;;;11.23;43.43;101468.53;1443242;99;21274;-90
2021/01/10 08:49:09;;;;;;;44.70;20.25;;;;;;;10.19;44.07;101470.73;1474272;97;22644;-91
2021/01/10 08:51:43;;;;;;;40.00;18.95;;;;;;;9.02;46.54;101448.50;1461967;98;21296;-90
2021/01/10 08:54:27;;;;;;;47.53;19.30;;;;;;;8.27;48.94;101462.22;1465264;97;21231;-91
2021/01/10 08:56:55;;;;;;;45.08;19.62;;;;;;;7.81;50.47;101462.13;1473343;97;21283;-89
2021/01/10 08:59:21;;;;;;;47.30;19.95;;;;;;;7.04;52.27;101459.59;1443047;99;21369;-90
2021/01/10 09:01:48;;;;;;;49.98;19.82;;;;;;;6.49;54.65;101461.89;1483610;94;21198;-90
2021/01/10 09:04:15;;;;;;;49.73;20.00;;;;;;;5.97;55.66;101459.63;1517424;94;21190;-90
2021/01/10 09:06:58;;;;;;;49.03;19.48;;;;;;;5.78;57.25;101459.94;1517635;94;21760;-90
2021/01/10 09:09:47;;;;;;;52.50;20.40;;;;;;;5.47;58.33;101468.03;1517666;94;21319;-90
2021/01/10 09:12:41;;;;;;;49.40;20.00;;;;;;;5.53;58.17;101461.05;1518463;94;21504;-92
2021/01/10 09:15:16;;;;;;;;;;;;;;;4.84;60.64;101468.83;1518124;94;21663;-92
2021/01/10 09:18:04;;;;;;;46.92;19.10;;;;;;;4.56;63.10;101467.09;1517565;94;21119;-92
2021/01/10 09:20:42;;;;;;;51.30;21.17;;;;;;;4.34;62.21;101470.34;1529169;91;21255;-93
2021/01/10 09:23:09;;;;;;;52.13;20.40;;;;;;;4.28;63.15;101461.80;1472470;97;21663;-93
2021/01/10 09:25:36;;;;;;;55.17;21.10;;;;;;;4.24;63.37;101466.71;1496923;95;21126;-92
2021/01/10 09:28:16;;;;;;;52.15;20.97;;;;;;;4.06;64.72;101461.88;1506545;95;21262;-90
2021/01/10 09:30:45;;;;;;;54.70;19.87;;;;;;;4.00;65.47;101457.81;1480805;95;21220;-91
2021/01/10 09:33:12;;;;;;;54.65;20.23;;;;;;;3.93;65.12;101455.11;1537255;92;21581;-91
2021/01/10 09:35:45;;;;;;;54.45;19.57;;;;;;;3.91;65.48;101458.47;1537337;93;21660;-92
2021/01/10 09:38:17;;;;;;;52.08;19.77;;;;;;;3.96;66.25;101459.23;1537304;91;21212;-92
2021/01/10 09:41:12;;;;;;;53.98;20.37;;;;;;;3.92;66.64;101451.32;1556187;89;21720;-92
2021/01/10 09:43:52;;;;;;;53.17;20.97;;;;;;;3.75;66.49;101444.11;1586631;90;21197;-90
2021/01/10 09:46:29;;;;;;;47.75;18.00;;;;;;;3.77;67.42;101458.08;1586691;89;21261;-91
2021/01/10 09:49:02;;;;;;;45.03;17.87;;;;;;;3.71;67.10;101450.34;1586774;89;21236;-91
2021/01/10 09:51:41;;;;;;;48.92;19.05;;;;;;;3.64;67.35;101450.78;1518736;94;21260;-90
2021/01/10 09:54:26;;;;;;;49.98;18.80;;;;;;;3.64;67.32;101452.12;1536855;93;21787;-94
2021/01/10 09:56:57;;;;;;;50.35;19.75;;;;;;;3.69;68.25;101448.38;1459598;97;21682;-92
2021/01/10 09:59:45;;;;;;;48.65;18.45;;;;;;;3.67;67.78;101450.91;1476978;95;21280;-91
2021/01/10 10:02:15;;;;;;;52.48;19.90;;;;;;;3.64;68.21;101449.45;1487341;94;21261;-90
2021/01/10 10:04:46;;;;;;;50.73;18.85;;;;;;;3.64;68.28;101450.27;1477394;96;21295;-93
2021/01/10 10:07:14;;;;;;;51.08;18.65;;;;;;;3.49;70.63;101440.20;1487886;96;21429;-93
2021/01/10 10:09:53;;;;;;;50.92;19.23;;;;;;;3.38;70.55;101432.73;1493859;95;21209;-93
2021/01/10 10:12:22;;;;;;;54.35;18.42;;;;;;;3.57;69.23;101431.27;1458238;97;21815;-93
2021/01/10 10:15:02;;;;;;;44.30;18.60;;;;;;;3.33;69.34;101435.16;1453917;98;21303;-92
2021/01/10 10:17:32;;;;;;;50.12;18.25;;;;;;;3.31;69.75;101428.68;1405855;100;21345;-92
2021/01/10 10:19:59;;;;;;;48.10;18.07;;;;;;;3.37;69.41;101432.42;1449945;96;21259;-91
2021/01/10 10:22:29;;;;;;;41.85;16.80;;;;;;;3.34;70.20;101432.80;1463432;96;21242;-92
2021/01/10 10:24:56;;;;;;;51.37;18.95;;;;;;;3.28;70.77;101431.73;1464648;96;21290;-92
2021/01/10 10:27:26;;;;;;;51.50;19.62;;;;;;;3.39;69.67;101430.40;1464561;96;21290;-90
2021/01/10 10:29:54;;;;;;;46.75;18.12;;;;;;;3.23;70.20;101432.80;1445160;96;21246;-91
2021/01/10 10:32:22;;;;;;;48.92;18.60;;;;;;;3.27;70.31;101430.09;1435232;98;21668;-90
2021/01/10 10:34:50;;;;;;;46.02;18.60;;;;;;;3.34;70.17;101441.61;1446166;99;21271;-91
2021/01/10 10:37:17;;;;;;;47.95;18.20;;;;;;;3.25;71.20;101432.11;1473781;95;21251;-92
2021/01/10 10:39:45;;;;;;;43.45;17.30;;;;;;;3.21;71.77;101433.52;1490881;95;21229;-92
2021/01/10 10:42:15;;;;;;;49.55;18.77;;;;;;;3.30;71.35;101440.87;1481951;96;21287;-91
2021/01/10 10:44:41;;;;;;;50.67;18.85;;;;;;;3.41;71.31;101440.34;1481451;96;21276;-93
2021/01/10 10:47:14;;;;;;;54.27;20.23;;;;;;;3.26;72.26;101436.41;1481838;96;21099;-89
2021/01/10 10:49:42;;;;;;;51.25;18.75;;;;;;;3.37;71.44;101434.57;1473289;97;21271;-89
2021/01/10 10:52:10;;;;;;;45.25;17.85;;;;;;;3.44;71.37;101437.29;1463259;97;22442;-89
2021/01/10 10:54:36;;;;;;;50.28;18.15;;;;;;;3.36;71.54;101440.92;1483217;93;21155;-89
2021/01/10 10:57:02;;;;;;;45.80;18.20;;;;;;;3.21;72.18;101444.65;1529391;93;21226;-89
2021/01/10 10:59:28;;;;;;;55.25;19.80;;;;;;;3.37;71.26;101437.23;1535779;90;21221;-90
2021/01/10 11:01:54;;;;;;;52.80;19.92;;;;;;;3.54;70.75;101439.64;1546748;91;20993;-89
2021/01/10 11:04:20;;;;;;;48.65;19.05;;;;;;;3.56;70.61;101443.77;1597279;89;21214;-88
2021/01/10 11:06:46;;;;;;;49.93;18.67;;;;;;;3.42;71.25;101446.00;1597425;89;20973;-88
2021/01/10 11:09:12;;;;;;;49.55;19.40;;;;;;;3.28;72.77;101453.03;1660281;84;21619;-89
2021/01/10 11:11:43;;;;;;;51.10;19.05;;;;;;;3.29;72.51;101453.85;1701204;84;21127;-89
2021/01/10 11:14:10;;;;;;;53.80;19.67;;;;;;;3.36;71.90;101450.77;1701334;84;21176;-89
2021/01/10 11:16:38;;;;;;;49.20;19.02;;;;;;;3.34;72.17;101451.45;1701393;84;21211;-90
2021/01/10 11:19:07;;;;;;;50.33;19.07;;;;;;;3.45;71.52;101450.95;1701178;84;21213;-89
2021/01/10 11:21:38;;;;;;;49.38;18.25;;;;;;;3.32;71.81;101452.95;1701408;84;21239;-89
2021/01/10 11:24:05;;;;;;;45.45;16.82;;;;;;;3.30;71.89;101458.19;1658197;86;21168;-89
2021/01/10 11:26:32;;;;;;;49.25;17.92;;;;;;;3.33;71.87;101451.14;1658332;86;21666;-89
2021/01/10 11:29:00;;;;;;;48.75;19.73;;;;;;;3.46;72.46;101455.25;1658223;86;21706;-90